Time;durP1;ratioP1;P1;durP2;ratioP2;P2;SDS_P1;SDS_P2;PMS_P1;PMS_P2;Temp;Humidity;BMP_temperature;BMP_pressure;BME280_temperature;BME280_humidity;BME280_pressure;Samples;Min_cycle;Max_cycle;Signal;HPM_P1;HPM_P2
2022/08/16 00:00:05;;;;;;;10.63;8.68;;;;;;;19.79;97.20;94009.06;5033416;28;20213;-63
2022/08/16 00:02:32;;;;;;;10.00;8.30;;;;;;;19.79;98.15;94000.53;5033200;28;20707;-63
2022/08/16 00:04:57;;;;;;;11.20;9.00;;;;;;;19.70;99.63;93994.78;5051048;28;20266;-61
2022/08/16 00:07:23;;;;;;;11.75;8.32;;;;;;;19.56;100.00;93995.00;5051296;28;20659;-64
2022/08/16 00:09:48;;;;;;;10.40;8.55;;;;;;;19.76;100.00;94016.41;5051291;28;20280;-60
2022/08/16 00:12:14;;;;;;;9.27;8.25;;;;;;;19.99;98.98;94040.00;5051537;28;20182;-60
2022/08/16 00:14:40;;;;;;;9.77;8.50;;;;;;;19.94;99.62;94022.53;5051747;28;20267;-60
2022/08/16 00:17:05;;;;;;;10.00;7.97;;;;;;;19.89;100.00;94013.81;5051227;28;20269;-61
2022/08/16 00:19:33;;;;;;;9.35;8.38;;;;;;;19.79;100.00;94016.81;5051734;28;20205;-61
2022/08/16 00:21:59;;;;;;;10.43;8.88;;;;;;;19.79;100.00;94027.13;5051334;28;20299;-63
2022/08/16 00:24:26;;;;;;;11.50;9.13;;;;;;;19.75;100.00;94035.47;5050824;28;20216;-66
2022/08/16 00:26:52;;;;;;;11.50;8.85;;;;;;;19.77;100.00;94039.44;5033186;28;20189;-65
2022/08/16 00:29:18;;;;;;;9.77;8.77;;;;;;;19.58;100.00;94042.81;5051287;28;20760;-63
2022/08/16 00:31:48;;;;;;;11.15;8.48;;;;;;;19.43;100.00;94031.94;5051353;28;20217;-62
2022/08/16 00:34:14;;;;;;;10.70;9.07;;;;;;;19.34;100.00;94034.88;5051103;28;20201;-61
2022/08/16 00:36:40;;;;;;;10.55;9.45;;;;;;;19.34;100.00;94024.56;5050796;28;20251;-61
2022/08/16 00:39:05;;;;;;;10.05;8.65;;;;;;;19.23;100.00;94015.59;5051699;28;20206;-63
2022/08/16 00:41:32;;;;;;;12.55;9.77;;;;;;;19.09;100.00;94019.16;5051980;28;20248;-64
2022/08/16 00:44:01;;;;;;;10.82;9.35;;;;;;;19.15;100.00;94031.25;5051832;28;20201;-60
2022/08/16 00:46:32;;;;;;;12.07;8.82;;;;;;;19.25;100.00;94027.31;5051509;28;20223;-64
2022/08/16 00:48:58;;;;;;;12.13;9.45;;;;;;;19.25;100.00;94037.63;5033027;28;20213;-64
2022/08/16 00:51:24;;;;;;;9.60;8.60;;;;;;;19.22;100.00;94043.19;5052103;28;20296;-63
2022/08/16 00:53:52;;;;;;;12.95;10.00;;;;;;;19.23;100.00;94047.34;5051541;28;20710;-61
2022/08/16 00:56:22;;;;;;;13.80;9.95;;;;;;;19.21;100.00;94061.41;5035378;28;20190;-64
2022/08/16 00:58:48;;;;;;;11.05;9.55;;;;;;;19.13;100.00;94056.44;5051373;28;20213;-66
2022/08/16 01:01:16;;;;;;;11.23;9.43;;;;;;;19.15;100.00;94062.19;5032829;28;20353;-64
2022/08/16 01:03:51;;;;;;;11.30;9.48;;;;;;;19.17;100.00;94068.75;5051074;28;20213;-63
2022/08/16 01:06:18;;;;;;;12.32;9.40;;;;;;;19.18;100.00;94072.13;5032428;28;20189;-63
2022/08/16 01:08:47;;;;;;;12.32;10.35;;;;;;;19.28;100.00;94068.16;5032428;28;20214;-63
2022/08/16 01:11:13;;;;;;;12.73;8.77;;;;;;;19.32;100.00;94106.44;5051074;28;20182;-61
2022/08/16 01:13:40;;;;;;;9.68;8.35;;;;;;;19.37;100.00;94086.84;5049950;28;20217;-61
2022/08/16 01:16:15;;;;;;;10.18;8.70;;;;;;;19.38;100.00;94077.31;5050035;28;20264;-60
2022/08/16 01:19:08;;;;;;;12.85;8.70;;;;;;;19.40;100.00;94114.81;5055162;28;20303;-61
2022/08/16 01:21:38;;;;;;;10.23;8.57;;;;;;;19.38;100.00;94111.63;5053989;28;20241;-65
2022/08/16 01:24:47;;;;;;;10.35;9.25;;;;;;;19.24;100.00;94102.25;5036234;28;20237;-63
2022/08/16 01:27:20;;;;;;;11.50;9.23;;;;;;;19.33;100.00;94108.88;4954285;29;20276;-65
2022/08/16 01:29:54;;;;;;;10.10;9.10;;;;;;;19.46;100.00;94121.75;4954652;29;20224;-63
2022/08/16 01:32:19;;;;;;;11.93;8.63;;;;;;;19.57;100.00;94118.59;5014748;28;20223;-66
2022/08/16 01:34:45;;;;;;;9.65;8.65;;;;;;;19.73;100.00;94138.06;5055967;28;20247;-64
2022/08/16 01:37:12;;;;;;;11.82;9.07;;;;;;;19.50;100.00;94111.84;5037408;28;20189;-61
2022/08/16 01:39:38;;;;;;;10.55;9.18;;;;;;;19.73;100.00;94130.31;5060216;22;20224;-62
2022/08/16 01:42:07;;;;;;;9.02;8.10;;;;;;;19.73;100.00;94132.88;5053213;28;20240;-65
2022/08/16 01:44:33;;;;;;;11.20;8.98;;;;;;;19.52;100.00;94105.50;5053188;28;20252;-65
2022/08/16 01:46:59;;;;;;;10.13;8.95;;;;;;;19.59;100.00;94108.88;5053486;28;20189;-64
2022/08/16 01:49:32;;;;;;;11.32;9.35;;;;;;;19.45;100.00;94102.13;5053802;28;20308;-63
2022/08/16 01:52:11;;;;;;;13.20;9.18;;;;;;;19.37;100.00;94089.44;5055782;28;20186;-63
2022/08/16 01:54:38;;;;;;;12.95;9.20;;;;;;;19.21;100.00;94093.13;5037405;28;20789;-65
2022/08/16 01:57:04;;;;;;;10.68;9.27;;;;;;;19.16;100.00;94099.88;5055211;28;20194;-63
2022/08/16 01:59:32;;;;;;;9.50;8.57;;;;;;;19.31;100.00;94103.03;5036110;28;20208;-63
2022/08/16 02:01:59;;;;;;;10.95;8.43;;;;;;;19.31;100.00;94097.13;5054313;28;20282;-61
2022/08/16 02:04:25;;;;;;;10.32;9.30;;;;;;;19.55;100.00;94110.28;5054233;28;20274;-65
2022/08/16 02:06:51;;;;;;;9.80;8.80;;;;;;;19.46;100.00;94097.75;5053464;28;20647;-62
2022/08/16 02:09:19;;;;;;;9.50;8.60;;;;;;;19.45;100.00;94099.56;5053167;28;20204;-64
2022/08/16 02:11:48;;;;;;;10.02;8.85;;;;;;;19.21;100.00;94102.63;5053994;28;20201;-63
2022/08/16 02:14:13;;;;;;;10.90;9.80;;;;;;;19.15;100.00;94109.38;5034900;28;20210;-63
2022/08/16 02:16:41;;;;;;;14.32;10.20;;;;;;;18.98;100.00;94112.50;5053407;28;20195;-63
2022/08/16 02:19:07;;;;;;;16.48;10.60;;;;;;;18.92;100.00;94108.94;5053101;28;20220;-65
2022/08/16 02:21:33;;;;;;;16.95;10.60;;;;;;;18.94;100.00;94116.47;5052553;28;20300;-64
2022/08/16 02:23:59;;;;;;;11.10;9.90;;;;;;;18.86;100.00;94124.34;5052635;28;20214;-65
2022/08/16 02:26:25;;;;;;;16.40;11.23;;;;;;;18.81;100.00;94142.97;5034574;28;20201;-65
2022/08/16 02:28:51;;;;;;;13.10;10.93;;;;;;;18.84;100.00;94147.75;5035748;28;20213;-67
2022/08/16 02:31:17;;;;;;;15.43;11.02;;;;;;;18.90;100.00;94172.72;5035241;28;20197;-65
2022/08/16 02:33:43;;;;;;;11.95;10.45;;;;;;;18.80;100.00;94174.88;5053302;28;20216;-61
2022/08/16 02:36:11;;;;;;;12.55;11.07;;;;;;;18.87;100.00;94172.28;5053106;28;20189;-65
2022/08/16 02:38:38;;;;;;;12.77;11.05;;;;;;;18.91;100.00;94173.50;5052094;28;20257;-61
2022/08/16 02:41:04;;;;;;;17.10;12.52;;;;;;;18.96;100.00;94176.31;5052706;28;20221;-61
2022/08/16 02:43:31;;;;;;;15.75;12.73;;;;;;;19.00;100.00;94170.59;5034440;28;20213;-61
2022/08/16 02:45:58;;;;;;;13.75;12.27;;;;;;;18.90;100.00;94182.22;5052608;28;20215;-60
2022/08/16 02:48:25;;;;;;;13.45;12.05;;;;;;;19.08;100.00;94182.50;5052995;28;20209;-63
2022/08/16 02:50:51;;;;;;;15.45;11.55;;;;;;;19.14;100.00;94174.00;5052339;28;20339;-62
2022/08/16 02:53:17;;;;;;;16.88;11.82;;;;;;;19.24;100.00;94174.44;5052754;28;20304;-63
2022/08/16 02:55:42;;;;;;;16.10;12.00;;;;;;;19.14;100.00;94168.84;5034357;28;20209;-62
2022/08/16 02:58:08;;;;;;;17.58;11.82;;;;;;;19.21;100.00;94172.22;5052153;28;20182;-62
2022/08/16 03:00:33;;;;;;;14.25;12.10;;;;;;;19.29;100.00;94174.63;5052414;28;20194;-61
2022/08/16 03:02:59;;;;;;;13.55;12.07;;;;;;;19.03;100.00;94166.81;5052070;28;20549;-62
2022/08/16 03:05:24;;;;;;;14.73;13.00;;;;;;;19.13;100.00;94162.09;5034714;28;20205;-65
2022/08/16 03:07:50;;;;;;;14.85;12.65;;;;;;;19.10;100.00;94167.66;5052499;28;20166;-63
2022/08/16 03:10:16;;;;;;;13.55;11.25;;;;;;;19.44;100.00;94162.41;5052410;28;20205;-60
2022/08/16 03:12:45;;;;;;;12.95;11.65;;;;;;;19.50;100.00;94158.25;5034038;28;20193;-62
2022/08/16 03:15:12;;;;;;;15.10;12.70;;;;;;;19.52;100.00;94149.34;5050724;28;20224;-63
2022/08/16 03:17:37;;;;;;;16.85;11.77;;;;;;;19.50;100.00;94143.56;5050755;28;20178;-63
2022/08/16 03:20:09;;;;;;;15.80;12.25;;;;;;;19.36;100.00;94141.97;5052235;28;20744;-63
2022/08/16 03:22:34;;;;;;;16.05;11.80;;;;;;;19.43;100.00;94147.94;5017827;28;20224;-62
2022/08/16 03:25:04;;;;;;;13.25;11.85;;;;;;;19.58;100.00;94145.16;5050764;28;20411;-60
2022/08/16 03:27:31;;;;;;;13.32;12.02;;;;;;;19.54;100.00;94152.50;5052605;28;20247;-64
2022/08/16 03:30:03;;;;;;;11.98;10.88;;;;;;;19.54;100.00;94147.34;5052079;28;20296;-64
2022/08/16 03:32:29;;;;;;;13.48;12.07;;;;;;;19.54;100.00;94144.78;5033761;28;20178;-66
2022/08/16 03:34:54;;;;;;;14.23;12.55;;;;;;;19.50;100.00;94143.56;5058616;22;20247;-62
2022/08/16 03:37:20;;;;;;;15.13;12.07;;;;;;;19.55;100.00;94146.38;5051112;28;20604;-65
2022/08/16 03:39:45;;;;;;;14.80;12.13;;;;;;;19.54;100.00;94141.41;5051609;28;20201;-63
2022/08/16 03:42:11;;;;;;;13.60;11.82;;;;;;;19.44;100.00;94138.41;5051567;28;20224;-62
2022/08/16 03:44:36;;;;;;;14.35;11.68;;;;;;;19.37;100.00;94142.78;5051450;28;20247;-62
2022/08/16 03:47:02;;;;;;;13.38;12.02;;;;;;;19.37;100.00;94156.47;5033499;28;20190;-63
2022/08/16 03:49:27;;;;;;;14.55;11.63;;;;;;;19.52;100.00;94166.56;5033437;28;20729;-63
2022/08/16 03:51:53;;;;;;;13.00;11.60;;;;;;;19.39;100.00;94162.22;5049664;28;20212;-65
2022/08/16 03:54:18;;;;;;;12.90;11.30;;;;;;;19.65;100.00;94161.44;5050316;28;20232;-67
2022/08/16 03:56:44;;;;;;;13.57;10.98;;;;;;;19.53;100.00;94150.94;5033833;28;20291;-64
2022/08/16 03:59:09;;;;;;;13.75;12.35;;;;;;;19.71;100.00;94151.16;5051121;28;20280;-61
2022/08/16 04:01:35;;;;;;;16.58;13.35;;;;;;;19.33;100.00;94138.97;5051555;28;20225;-63
2022/08/16 04:04:00;;;;;;;14.82;12.65;;;;;;;19.42;100.00;94136.03;5051695;28;20251;-63
2022/08/16 04:06:26;;;;;;;13.23;11.93;;;;;;;19.50;100.00;94147.94;5033718;28;20201;-62
2022/08/16 04:08:52;;;;;;;13.60;11.80;;;;;;;19.72;100.00;94163.03;5051725;28;20220;-63
2022/08/16 04:11:17;;;;;;;14.23;11.27;;;;;;;19.79;100.00;94166.44;5051008;28;20564;-63
2022/08/16 04:13:43;;;;;;;13.00;11.00;;;;;;;19.80;100.00;94149.94;5051116;28;20201;-63
2022/08/16 04:16:11;;;;;;;14.13;11.43;;;;;;;19.75;100.00;94139.44;5051325;28;20193;-63
2022/08/16 04:18:37;;;;;;;13.25;11.85;;;;;;;19.87;100.00;94135.28;5050944;28;20210;-63
2022/08/16 04:21:04;;;;;;;14.70;11.40;;;;;;;20.05;100.00;94147.56;5050922;28;20217;-62
2022/08/16 04:23:30;;;;;;;15.05;12.57;;;;;;;20.07;100.00;94146.38;5050987;28;20566;-62
2022/08/16 04:25:55;;;;;;;15.05;12.80;;;;;;;20.10;100.00;94140.81;5051273;28;20196;-63
2022/08/16 04:28:21;;;;;;;16.40;13.02;;;;;;;20.00;100.00;94137.84;5051161;28;20186;-63
2022/08/16 04:30:46;;;;;;;15.85;13.30;;;;;;;20.01;100.00;94144.59;5051452;28;20204;-62
2022/08/16 04:33:12;;;;;;;17.77;13.15;;;;;;;19.77;100.00;94144.41;5050919;28;20243;-62
2022/08/16 04:35:38;;;;;;;14.23;12.10;;;;;;;20.00;100.00;94150.75;5050682;28;20697;-63
2022/08/16 04:38:04;;;;;;;14.80;12.00;;;;;;;20.01;100.00;94146.38;5050736;28;20195;-63
2022/08/16 04:40:30;;;;;;;13.15;11.50;;;;;;;20.25;100.00;94152.75;5050854;28;20182;-64
2022/08/16 04:42:55;;;;;;;15.80;13.35;;;;;;;20.37;100.00;94151.94;5050692;28;20182;-68
2022/08/16 04:45:21;;;;;;;17.75;13.88;;;;;;;20.42;100.00;94146.94;5050745;28;20696;-61
2022/08/16 04:47:47;;;;;;;14.90;13.20;;;;;;;20.50;100.00;94151.88;5050801;28;20278;-66
2022/08/16 04:50:17;;;;;;;18.25;14.55;;;;;;;20.41;100.00;94131.66;5051923;28;20220;-64
2022/08/16 04:52:48;;;;;;;17.00;13.93;;;;;;;20.37;100.00;94125.31;5054405;28;20204;-64
2022/08/16 04:55:17;;;;;;;17.20;13.98;;;;;;;20.28;100.00;94137.63;5060215;22;20275;-64
2022/08/16 04:57:44;;;;;;;16.35;13.63;;;;;;;20.15;100.00;94140.22;5053946;28;20308;-66
2022/08/16 05:00:18;;;;;;;14.48;12.77;;;;;;;20.22;100.00;94148.00;5053947;28;20212;-64
2022/08/16 05:02:44;;;;;;;14.93;13.38;;;;;;;20.28;100.00;94147.97;5053833;28;20220;-65
2022/08/16 05:05:11;;;;;;;17.52;12.95;;;;;;;20.51;100.00;94152.69;5060216;22;20221;-61
2022/08/16 05:07:36;;;;;;;17.20;14.32;;;;;;;20.60;100.00;94161.81;5054457;28;20235;-64
2022/08/16 05:10:05;;;;;;;17.63;14.30;;;;;;;20.58;100.00;94180.09;5053874;28;20202;-61
2022/08/16 05:12:30;;;;;;;22.00;14.50;;;;;;;20.54;100.00;94172.97;5053581;28;20192;-60
2022/08/16 05:14:56;;;;;;;19.00;14.07;;;;;;;20.49;100.00;94185.66;5072656;22;20221;-62
2022/08/16 05:17:22;;;;;;;16.05;13.20;;;;;;;20.49;100.00;94170.19;5053697;28;20193;-62
2022/08/16 05:19:48;;;;;;;20.75;13.95;;;;;;;20.39;100.00;94190.44;5053734;28;20722;-59
2022/08/16 05:22:14;;;;;;;16.27;13.88;;;;;;;20.42;100.00;94166.81;5053686;28;20209;-60
2022/08/16 05:24:40;;;;;;;16.92;12.77;;;;;;;20.53;100.00;94166.19;5053779;28;20213;-60
2022/08/16 05:27:05;;;;;;;18.35;14.38;;;;;;;20.82;100.00;94183.81;5053616;28;20258;-60
2022/08/16 05:29:30;;;;;;;17.88;13.52;;;;;;;20.73;100.00;94216.81;5053825;28;20213;-63
2022/08/16 05:31:56;;;;;;;16.30;12.75;;;;;;;20.58;100.00;94184.47;5053486;28;20616;-70
2022/08/16 05:34:21;;;;;;;15.95;12.88;;;;;;;20.48;100.00;94181.50;5053276;28;20558;-63
2022/08/16 05:36:51;;;;;;;21.40;14.85;;;;;;;20.56;100.00;94181.31;5053137;28;20189;-63
2022/08/16 05:39:18;;;;;;;16.08;13.38;;;;;;;20.52;100.00;94170.56;5034639;28;20237;-63
2022/08/16 05:41:43;;;;;;;14.43;12.82;;;;;;;20.85;100.00;94153.19;5053202;28;20275;-63
2022/08/16 05:44:10;;;;;;;22.20;13.43;;;;;;;21.02;100.00;94166.47;5053193;28;20213;-63
2022/08/16 05:46:35;;;;;;;16.33;12.82;;;;;;;21.17;100.00;94186.91;5053457;28;20197;-62
2022/08/16 05:49:01;;;;;;;18.00;12.13;;;;;;;21.33;100.00;94194.97;5053547;28;20220;-60
2022/08/16 05:51:27;;;;;;;16.48;12.52;;;;;;;21.43;100.00;94197.91;5053295;28;20558;-62
2022/08/16 05:53:53;;;;;;;18.80;14.52;;;;;;;21.50;100.00;94227.13;5051872;28;20213;-60
2022/08/16 05:56:18;;;;;;;24.20;15.02;;;;;;;21.29;100.00;94209.31;5035397;28;20193;-69
2022/08/16 05:58:43;;;;;;;19.83;14.80;;;;;;;21.15;100.00;94197.44;5053183;28;20263;-67
2022/08/16 06:01:09;;;;;;;17.63;14.85;;;;;;;20.98;100.00;94165.28;5052901;28;20217;-63
2022/08/16 06:03:36;;;;;;;18.25;13.95;;;;;;;21.16;100.00;94175.75;5052818;28;20213;-70
2022/08/16 06:06:02;;;;;;;19.40;14.73;;;;;;;21.10;100.00;94157.69;5052993;28;20213;-63
2022/08/16 06:08:28;;;;;;;19.88;14.40;;;;;;;21.28;100.00;94166.34;5052892;28;20554;-61
2022/08/16 06:10:53;;;;;;;16.75;13.52;;;;;;;21.55;100.00;94175.53;5053605;28;20197;-66
2022/08/16 06:13:19;;;;;;;22.08;14.00;;;;;;;21.52;100.00;94240.66;5052958;28;20276;-64
2022/08/16 06:15:45;;;;;;;19.25;13.52;;;;;;;21.36;100.00;94173.06;5054059;28;20186;-59
2022/08/16 06:18:10;;;;;;;19.88;14.05;;;;;;;21.29;100.00;94224.06;5035194;28;20235;-65
2022/08/16 06:20:35;;;;;;;15.60;12.35;;;;;;;21.29;100.00;94149.06;5053081;28;20746;-63
2022/08/16 06:23:01;;;;;;;20.25;13.65;;;;;;;21.42;100.00;94219.59;5052857;28;20181;-64
2022/08/16 06:25:28;;;;;;;13.20;11.85;;;;;;;21.41;100.00;94166.28;5052798;28;20209;-64
2022/08/16 06:27:54;;;;;;;12.00;10.80;;;;;;;21.56;100.00;94163.41;5052571;28;20189;-63
2022/08/16 06:30:20;;;;;;;16.17;12.93;;;;;;;21.82;100.00;94219.41;5052693;28;20240;-64
2022/08/16 06:32:46;;;;;;;15.95;12.75;;;;;;;21.85;100.00;94162.84;5052824;28;20190;-66
2022/08/16 06:35:12;;;;;;;14.82;12.30;;;;;;;22.11;100.00;94198.91;5053007;28;20216;-60
2022/08/16 06:37:39;;;;;;;14.85;11.63;;;;;;;22.32;100.00;94172.59;5034608;28;20196;-61
2022/08/16 06:40:12;;;;;;;16.83;12.20;;;;;;;22.58;100.00;94188.97;5052843;28;20201;-67
2022/08/16 06:42:38;;;;;;;15.93;13.27;;;;;;;22.69;100.00;94227.91;5052353;28;20308;-65
2022/08/16 06:45:05;;;;;;;16.02;13.77;;;;;;;22.71;100.00;94282.91;5052639;28;20293;-64
2022/08/16 06:47:31;;;;;;;20.20;14.02;;;;;;;22.59;100.00;94284.63;5052470;28;20185;-66
2022/08/16 06:49:56;;;;;;;22.80;15.68;;;;;;;22.26;100.00;94243.41;5052444;28;20560;-66
2022/08/16 06:52:21;;;;;;;14.10;12.02;;;;;;;21.98;100.00;94136.84;5052719;28;20185;-69
2022/08/16 06:54:48;;;;;;;18.10;14.20;;;;;;;22.02;100.00;94214.91;5052668;28;20687;-70
2022/08/16 06:57:13;;;;;;;18.02;13.52;;;;;;;21.94;100.00;94197.06;5052415;28;20186;-67
2022/08/16 06:59:39;;;;;;;17.17;12.43;;;;;;;22.13;100.00;94154.66;5052567;28;20604;-65
2022/08/16 07:02:04;;;;;;;13.90;11.90;;;;;;;22.41;100.00;94191.28;5052192;28;20213;-64
2022/08/16 07:04:30;;;;;;;18.08;13.68;;;;;;;22.48;100.00;94207.56;5052068;28;20715;-65
2022/08/16 07:06:55;;;;;;;15.93;11.27;;;;;;;22.66;100.00;94163.56;5060492;22;20327;-62
2022/08/16 07:09:21;;;;;;;17.95;12.85;;;;;;;22.79;100.00;94189.31;5050365;28;20303;-62
2022/08/16 07:11:46;;;;;;;15.05;13.50;;;;;;;22.89;100.00;94207.75;5052043;28;20655;-62
2022/08/16 07:14:12;;;;;;;19.10;14.35;;;;;;;23.01;100.00;94283.84;5050916;28;20706;-61
2022/08/16 07:19:03;;;;;;;14.45;11.75;;;;;;;22.71;100.00;94153.31;5056668;22;20229;-60
2022/08/16 07:21:28;;;;;;;17.85;14.80;;;;;;;22.87;100.00;94245.28;5051678;28;20495;-62
2022/08/16 07:23:54;;;;;;;12.45;10.40;;;;;;;22.75;100.00;94149.28;5052346;28;20286;-69
2022/08/16 07:26:24;;;;;;;17.52;11.38;;;;;;;22.89;100.00;94131.78;5051839;28;20185;-64
2022/08/16 07:31:17;;;;;;;16.65;12.00;;;;;;;23.17;100.00;94189.88;5074755;22;20285;-64
2022/08/16 07:33:43;;;;;;;15.98;11.48;;;;;;;23.29;100.00;94214.09;5051673;28;20201;-65
2022/08/16 07:36:11;;;;;;;16.27;12.25;;;;;;;23.43;100.00;94224.34;5123090;22;20221;-64
2022/08/16 07:38:36;;;;;;;17.60;13.00;;;;;;;23.65;100.00;94279.97;5063993;22;20313;-62
2022/08/16 07:41:03;;;;;;;15.50;12.07;;;;;;;23.38;100.00;94200.84;5057532;22;20587;-64
2022/08/16 07:43:29;;;;;;;19.25;13.00;;;;;;;23.45;100.00;94240.50;5039765;22;20209;-64
2022/08/16 07:45:55;;;;;;;15.27;12.43;;;;;;;23.49;100.00;94239.03;5086134;22;20221;-70
2022/08/16 07:48:21;;;;;;;11.70;10.50;;;;;;;23.43;100.00;94188.03;5077024;22;20226;-69
2022/08/16 07:50:46;;;;;;;14.35;10.75;;;;;;;23.46;100.00;94174.59;5057562;22;20225;-64
2022/08/16 07:53:13;;;;;;;15.90;12.07;;;;;;;23.39;100.00;94229.19;5051452;28;20189;-63
2022/08/16 07:55:38;;;;;;;12.90;10.55;;;;;;;23.58;100.00;94212.56;5051670;28;20196;-62
2022/08/16 07:58:04;;;;;;;17.50;12.63;;;;;;;23.69;100.00;94244.78;5051454;28;20273;-62
2022/08/16 08:00:31;;;;;;;17.45;12.63;;;;;;;23.72;100.00;94250.31;5083989;22;20650;-62
2022/08/16 08:02:59;;;;;;;14.80;10.80;;;;;;;23.80;100.00;94218.06;5081074;22;20280;-61
2022/08/16 08:05:26;;;;;;;18.38;11.35;;;;;;;23.90;100.00;94226.09;5076078;22;20300;-62
2022/08/16 08:07:52;;;;;;;17.70;10.45;;;;;;;23.93;100.00;94236.06;5040618;23;20256;-61
2022/08/16 08:10:21;;;;;;;13.50;10.60;;;;;;;24.04;100.00;94230.91;5079732;22;20670;-63
2022/08/16 08:12:52;;;;;;;13.13;10.20;;;;;;;24.13;100.00;94226.19;5086604;22;20218;-62
2022/08/16 08:15:20;;;;;;;12.68;10.48;;;;;;;24.27;100.00;94245.78;5074571;22;20752;-62
2022/08/16 08:17:45;;;;;;;11.73;9.77;;;;;;;24.34;100.00;94261.25;5052034;22;20218;-70
2022/08/16 08:20:14;;;;;;;12.32;10.13;;;;;;;24.42;100.00;94318.88;5057210;22;20271;-70
2022/08/16 08:22:41;;;;;;;12.95;9.95;;;;;;;24.56;100.00;94343.72;5051035;28;20209;-69
2022/08/16 08:25:07;;;;;;;12.82;9.45;;;;;;;24.40;100.00;94242.19;5050683;28;20193;-62
2022/08/16 08:27:33;;;;;;;15.13;9.63;;;;;;;24.47;100.00;94248.06;5075258;22;20232;-62
2022/08/16 08:29:59;;;;;;;11.25;10.02;;;;;;;24.63;100.00;94299.38;5069346;22;20233;-62
2022/08/16 08:32:27;;;;;;;12.88;9.95;;;;;;;24.64;100.00;94290.59;5050863;28;20193;-70
2022/08/16 08:34:53;;;;;;;13.52;11.02;;;;;;;24.81;100.00;94378.13;5051066;28;20651;-69
2022/08/16 08:37:20;;;;;;;13.70;10.10;;;;;;;24.89;100.00;94358.81;5050894;28;20189;-69
2022/08/16 08:39:45;;;;;;;12.38;10.05;;;;;;;24.97;100.00;94307.25;5074783;22;20225;-63
2022/08/16 08:42:11;;;;;;;13.10;10.05;;;;;;;25.09;100.00;94363.72;5030896;28;20224;-62
2022/08/16 08:44:36;;;;;;;12.02;10.80;;;;;;;25.07;100.00;94278.06;5072794;22;20221;-62
2022/08/16 08:47:06;;;;;;;13.07;9.90;;;;;;;25.07;100.00;94347.53;5077179;22;20420;-62
2022/08/16 08:49:33;;;;;;;12.32;9.38;;;;;;;24.90;98.96;94363.81;5072037;22;20305;-62
2022/08/16 08:51:58;;;;;;;9.73;7.65;;;;;;;25.16;95.72;94412.00;5054346;22;20245;-63
2022/08/16 08:56:50;;;;;;;13.05;8.90;;;;;;;25.26;97.15;94367.19;5053496;22;20232;-62
2022/08/16 08:59:16;;;;;;;8.88;7.88;;;;;;;25.24;97.29;94353.63;5071966;22;20233;-63
2022/08/16 09:01:42;;;;;;;8.77;7.88;;;;;;;25.19;94.95;94389.97;5062939;22;20237;-64
2022/08/16 09:04:07;;;;;;;11.88;7.53;;;;;;;25.29;94.56;94398.00;5050407;28;20750;-64
2022/08/16 09:06:34;;;;;;;9.30;7.55;;;;;;;25.74;90.30;94462.31;5050559;28;20193;-66
2022/08/16 09:09:00;;;;;;;8.23;7.43;;;;;;;25.95;88.70;94454.94;5050368;28;20197;-63
2022/08/16 09:11:27;;;;;;;9.30;6.90;;;;;;;25.99;86.92;94462.06;5084080;22;20229;-69
2022/08/16 09:13:53;;;;;;;7.75;6.93;;;;;;;26.11;88.53;94415.16;5087776;22;20312;-70
2022/08/16 09:16:19;;;;;;;7.95;7.15;;;;;;;26.35;87.14;94450.56;5082830;22;20376;-67
2022/08/16 09:18:45;;;;;;;9.52;7.30;;;;;;;26.43;77.96;94479.69;5062542;22;20221;-64
2022/08/16 09:21:13;;;;;;;10.73;7.15;;;;;;;26.48;76.98;94453.69;5091912;22;20275;-64
2022/08/16 09:23:39;;;;;;;8.00;7.10;;;;;;;26.63;74.92;94461.81;5055351;22;20316;-63
2022/08/16 09:26:06;;;;;;;6.82;5.68;;;;;;;26.73;68.51;94544.72;5050291;28;20227;-64
2022/08/16 09:28:33;;;;;;;10.55;6.85;;;;;;;27.06;69.84;94473.56;5050155;28;20764;-65
2022/08/16 09:30:58;;;;;;;9.80;6.28;;;;;;;27.03;67.59;94507.94;5050371;28;20185;-66
2022/08/16 09:33:24;;;;;;;6.68;6.05;;;;;;;27.06;63.36;94564.91;5062364;22;20229;-63
2022/08/16 09:35:50;;;;;;;6.03;5.40;;;;;;;27.28;64.91;94509.19;5056281;22;20222;-67
2022/08/16 09:38:15;;;;;;;8.55;5.97;;;;;;;27.22;61.75;94577.22;5065263;22;20308;-63
2022/08/16 09:40:46;;;;;;;9.65;5.57;;;;;;;27.08;61.58;94549.81;5053350;28;20263;-65
2022/08/16 09:43:14;;;;;;;5.68;5.18;;;;;;;27.05;61.30;94529.41;5053976;28;20618;-63
2022/08/16 09:45:42;;;;;;;6.15;5.65;;;;;;;27.25;61.96;94490.59;5053323;28;20256;-64
2022/08/16 09:48:09;;;;;;;7.20;6.50;;;;;;;27.21;62.32;94472.00;5053607;28;20651;-63
2022/08/16 09:50:36;;;;;;;6.63;5.95;;;;;;;27.44;61.56;94452.81;5127335;22;20232;-62
2022/08/16 09:53:04;;;;;;;6.97;6.28;;;;;;;27.90;63.89;94400.16;5059407;22;20213;-63
2022/08/16 09:55:30;;;;;;;7.63;5.80;;;;;;;28.04;59.23;94492.09;5074148;22;20225;-67
2022/08/16 09:57:56;;;;;;;6.65;5.78;;;;;;;28.27;60.61;94436.19;5053309;28;20190;-66
2022/08/16 10:00:29;;;;;;;7.88;5.97;;;;;;;28.29;58.21;94466.28;5070828;22;20753;-67
2022/08/16 10:02:54;;;;;;;6.38;5.63;;;;;;;28.26;56.52;94485.06;5052978;28;20213;-65
2022/08/16 10:05:20;;;;;;;6.47;5.78;;;;;;;28.27;55.66;94496.31;5053114;28;20763;-67
2022/08/16 10:07:51;;;;;;;6.00;5.40;;;;;;;28.35;54.79;94495.91;5035033;28;20185;-66
2022/08/16 10:10:18;;;;;;;8.05;5.38;;;;;;;28.54;52.72;94516.31;5053120;28;20209;-65
2022/08/16 10:15:29;;;;;;;6.63;5.65;;;;;;;28.03;54.31;94459.97;5053405;28;20228;-66
2022/08/16 10:17:55;;;;;;;6.25;5.65;;;;;;;27.99;55.05;94453.63;5052983;28;20178;-66
2022/08/16 10:20:24;;;;;;;6.57;5.30;;;;;;;27.96;55.97;94425.34;5053174;28;20212;-66
2022/08/16 10:22:50;;;;;;;5.80;5.22;;;;;;;28.28;56.12;94419.47;5052688;28;20679;-66
2022/08/16 10:25:15;;;;;;;6.65;5.72;;;;;;;27.93;55.69;94417.97;5064851;22;20229;-67
2022/08/16 10:27:42;;;;;;;9.02;5.55;;;;;;;28.27;55.94;94408.22;5052923;28;20238;-67
2022/08/16 10:30:08;;;;;;;8.88;5.60;;;;;;;28.37;57.36;94381.38;5053058;28;20224;-66
2022/08/16 10:32:38;;;;;;;6.43;5.30;;;;;;;28.43;57.77;94369.91;5053185;28;20579;-64
2022/08/16 10:35:04;;;;;;;7.03;5.15;;;;;;;28.57;53.85;94462.72;5020934;22;20832;-63
2022/08/16 10:37:30;;;;;;;6.60;5.53;;;;;;;28.58;53.19;94459.06;4993456;28;20270;-64
2022/08/16 10:39:55;;;;;;;6.47;5.53;;;;;;;28.67;51.49;94486.38;5017946;23;20261;-66
2022/08/16 10:42:21;;;;;;;8.88;5.53;;;;;;;29.02;52.97;94447.47;5032501;28;20727;-65
2022/08/16 10:44:47;;;;;;;5.43;4.90;;;;;;;29.28;51.65;94477.31;5032824;28;20213;-66
2022/08/16 10:47:13;;;;;;;7.53;5.40;;;;;;;29.14;50.88;94471.72;5032840;28;20683;-62
2022/08/16 10:49:39;;;;;;;7.72;5.40;;;;;;;28.91;51.81;94464.13;5032881;28;20241;-65
2022/08/16 10:52:05;;;;;;;6.25;5.65;;;;;;;28.77;52.74;94442.00;5032826;28;20272;-64
2022/08/16 10:54:31;;;;;;;5.93;5.38;;;;;;;28.44;53.54;94429.06;5031444;23;20222;-62
2022/08/16 10:56:59;;;;;;;6.72;5.10;;;;;;;28.12;52.54;94442.81;5052357;28;20196;-62
2022/08/16 10:59:25;;;;;;;6.32;5.63;;;;;;;28.14;55.41;94380.59;5034390;28;20213;-62
2022/08/16 11:01:50;;;;;;;7.50;5.60;;;;;;;27.73;54.81;94403.84;5052250;28;20217;-63
2022/08/16 11:04:16;;;;;;;6.68;5.60;;;;;;;27.61;54.40;94409.19;5052098;28;20738;-62
2022/08/16 11:06:42;;;;;;;7.15;4.63;;;;;;;28.13;51.86;94462.69;5052193;28;20189;-62
2022/08/16 11:09:07;;;;;;;6.63;5.97;;;;;;;28.70;53.97;94410.81;5051973;28;20229;-65
2022/08/16 11:11:33;;;;;;;6.53;5.50;;;;;;;29.28;55.52;94378.56;5034266;28;20185;-65
2022/08/16 11:13:58;;;;;;;6.38;5.57;;;;;;;29.64;55.13;94393.47;5064741;22;20222;-65
2022/08/16 11:16:23;;;;;;;5.88;5.28;;;;;;;30.02;50.95;94472.91;5052120;28;20208;-64
2022/08/16 11:18:49;;;;;;;6.95;4.53;;;;;;;30.17;49.23;94496.59;5052179;28;20210;-65
2022/08/16 11:21:15;;;;;;;5.40;4.88;;;;;;;30.66;47.24;94539.91;5051911;28;20259;-66
2022/08/16 11:23:41;;;;;;;5.82;5.00;;;;;;;30.70;45.13;94563.81;5051928;28;20212;-66